Time;durP1;ratioP1;P1;durP2;ratioP2;P2;SDS_P1;SDS_P2;PMS_P1;PMS_P2;Temp;Humidity;BMP_temperature;BMP_pressure;BME280_temperature;BME280_humidity;BME280_pressure;Samples;Min_cycle;Max_cycle;Signal;HPM_P1;HPM_P2
2022/10/15 00:04:22;;;;;;;8.13;4.00;;;;;;;;;;10269925;28;20027;-79
2022/10/15 00:09:22;;;;;;;6.07;3.73;;;;;;;;;;10266040;28;20039;-78
2022/10/15 00:14:22;;;;;;;4.78;3.40;;;;;;;;;;10252359;28;20283;-79
2022/10/15 00:19:23;;;;;;;7.67;4.20;;;;;;;;;;10267344;28;20596;-80
2022/10/15 00:24:24;;;;;;;155.18;74.40;;;;;;;;;;10268694;28;20502;-81
2022/10/15 00:29:24;;;;;;;8.30;3.83;;;;;;;;;;10262919;28;20034;-77
2022/10/15 00:34:24;;;;;;;10.98;4.97;;;;;;;;;;10267909;28;20026;-80
2022/10/15 00:39:25;;;;;;;6.53;4.10;;;;;;;;;;10268812;28;20090;-82
2022/10/15 00:44:28;;;;;;;6.28;3.75;;;;;;;;;;10267476;28;20028;-81
2022/10/15 00:49:37;;;;;;;9.10;5.07;;;;;;;;;;10265229;28;20019;-79
2022/10/15 00:54:40;;;;;;;7.63;5.03;;;;;;;;;;10267875;28;20060;-78
2022/10/15 00:59:43;;;;;;;7.63;4.70;;;;;;;;;;10264699;28;20049;-81
2022/10/15 01:04:44;;;;;;;12.70;5.32;;;;;;;;;;10262962;28;20029;-79
2022/10/15 01:09:45;;;;;;;8.60;5.70;;;;;;;;;;10262839;28;20493;-82
2022/10/15 01:14:46;;;;;;;8.20;5.25;;;;;;;;;;10263931;28;20094;-82
2022/10/15 01:20:05;;;;;;;6.90;4.88;;;;;;;;;;10263548;28;20051;-83
2022/10/15 01:25:24;;;;;;;9.45;6.22;;;;;;;;;;10290570;28;20012;-74
2022/10/15 01:30:28;;;;;;;8.40;5.45;;;;;;;;;;10264007;28;20053;-80
2022/10/15 01:35:38;;;;;;;7.80;5.30;;;;;;;;;;10266388;28;20022;-77
2022/10/15 01:40:56;;;;;;;8.50;5.47;;;;;;;;;;10287991;28;20026;-77
2022/10/15 01:45:59;;;;;;;13.53;5.33;;;;;;;;;;10265794;28;20015;-73
2022/10/15 01:51:01;;;;;;;11.60;6.15;;;;;;;;;;10263569;28;20638;-83
2022/10/15 01:56:13;;;;;;;6.15;5.07;;;;;;;;;;10264198;28;20012;-80
2022/10/15 02:01:14;;;;;;;6.30;4.72;;;;;;;;;;10263176;28;20055;-79
2022/10/15 02:06:27;;;;;;;8.10;5.10;;;;;;;;;;10246559;28;20585;-76
2022/10/15 02:11:28;;;;;;;9.05;5.63;;;;;;;;;;10262771;28;20090;-81
2022/10/15 02:16:32;;;;;;;9.75;5.97;;;;;;;;;;10261996;28;20031;-76
2022/10/15 02:21:41;;;;;;;10.25;6.07;;;;;;;;;;10265606;28;20572;-81
2022/10/15 02:26:42;;;;;;;17.50;9.80;;;;;;;;;;10263563;28;20027;-80
2022/10/15 02:31:43;;;;;;;12.05;6.15;;;;;;;;;;10264702;28;20489;-78
2022/10/15 02:36:44;;;;;;;8.05;5.35;;;;;;;;;;10259957;28;20129;-79
2022/10/15 02:41:45;;;;;;;7.07;5.47;;;;;;;;;;10262756;28;20025;-75
2022/10/15 02:46:46;;;;;;;11.25;5.72;;;;;;;;;;10260662;28;20034;-81
2022/10/15 02:51:47;;;;;;;13.95;4.82;;;;;;;;;;10265356;28;20019;-73
2022/10/15 02:56:49;;;;;;;9.82;5.35;;;;;;;;;;10262502;28;20030;-79
2022/10/15 03:01:50;;;;;;;9.52;5.35;;;;;;;;;;10259230;28;20016;-77
2022/10/15 03:06:51;;;;;;;10.45;5.43;;;;;;;;;;10263451;28;20023;-79
2022/10/15 03:11:52;;;;;;;9.55;6.28;;;;;;;;;;10266088;28;20413;-78
2022/10/15 03:16:52;;;;;;;8.65;5.18;;;;;;;;;;10263421;28;20126;-81
2022/10/15 03:21:52;;;;;;;9.75;7.07;;;;;;;;;;10259588;28;20061;-74
2022/10/15 03:26:53;;;;;;;10.15;5.30;;;;;;;;;;10260886;28;20027;-75
2022/10/15 03:31:53;;;;;;;9.13;5.47;;;;;;;;;;10265299;28;20025;-74
2022/10/15 03:36:53;;;;;;;9.85;5.53;;;;;;;;;;10267887;28;20090;-75
2022/10/15 03:41:54;;;;;;;13.88;5.95;;;;;;;;;;10252270;28;20030;-79
2022/10/15 03:46:54;;;;;;;14.97;6.57;;;;;;;;;;10266703;28;20109;-75
2022/10/15 03:51:54;;;;;;;10.93;6.00;;;;;;;;;;10267797;28;20031;-75
2022/10/15 03:56:54;;;;;;;9.40;6.33;;;;;;;;;;10292450;28;20032;-75
2022/10/15 04:01:55;;;;;;;14.88;6.32;;;;;;;;;;10266695;28;20031;-79
2022/10/15 04:06:55;;;;;;;10.88;6.18;;;;;;;;;;10267895;28;20034;-83
2022/10/15 04:11:55;;;;;;;12.15;6.22;;;;;;;;;;10266167;28;20023;-77
2022/10/15 04:16:57;;;;;;;8.63;6.30;;;;;;;;;;10267869;28;20027;-75
2022/10/15 04:21:58;;;;;;;9.10;5.82;;;;;;;;;;10266553;28;20134;-74
2022/10/15 04:26:58;;;;;;;8.00;5.80;;;;;;;;;;10265838;28;20027;-75
2022/10/15 04:31:58;;;;;;;11.05;6.25;;;;;;;;;;10266691;28;20274;-79
2022/10/15 04:36:59;;;;;;;9.75;7.22;;;;;;;;;;10266275;28;20442;-78
2022/10/15 04:41:59;;;;;;;13.13;6.10;;;;;;;;;;10265814;28;20029;-73
2022/10/15 04:47:00;;;;;;;9.45;6.75;;;;;;;;;;10264810;28;20026;-80
2022/10/15 04:52:01;;;;;;;11.60;6.85;;;;;;;;;;10261121;28;20026;-79
2022/10/15 04:57:05;;;;;;;11.98;6.63;;;;;;;;;;10268131;28;20030;-75
2022/10/15 05:02:05;;;;;;;10.25;6.38;;;;;;;;;;10260487;28;20026;-75
2022/10/15 05:07:05;;;;;;;12.23;6.28;;;;;;;;;;10264062;28;20387;-79
2022/10/15 05:12:05;;;;;;;11.57;6.88;;;;;;;;;;10265138;28;20023;-79
2022/10/15 05:17:06;;;;;;;12.55;6.70;;;;;;;;;;10263632;28;20026;-74
2022/10/15 05:22:06;;;;;;;12.60;8.63;;;;;;;;;;10263489;28;20074;-76
2022/10/15 05:27:06;;;;;;;13.88;7.63;;;;;;;;;;10263565;28;20635;-75
2022/10/15 05:32:07;;;;;;;10.48;7.97;;;;;;;;;;10258371;28;20057;-74
2022/10/15 05:37:07;;;;;;;15.63;8.15;;;;;;;;;;10259629;28;20026;-75
2022/10/15 05:42:08;;;;;;;18.30;8.18;;;;;;;;;;10262672;28;20038;-75
2022/10/15 05:47:11;;;;;;;14.52;7.78;;;;;;;;;;10249839;28;20031;-74
2022/10/15 05:52:11;;;;;;;14.15;6.72;;;;;;;;;;10256396;28;20038;-75
2022/10/15 05:57:11;;;;;;;12.38;6.82;;;;;;;;;;10263861;28;20031;-76
2022/10/15 06:02:14;;;;;;;14.32;7.25;;;;;;;;;;10256217;28;20515;-77
2022/10/15 06:07:15;;;;;;;18.83;7.32;;;;;;;;;;10254837;28;20117;-75
2022/10/15 06:12:15;;;;;;;22.05;7.75;;;;;;;;;;10278936;28;20035;-79
2022/10/15 06:17:15;;;;;;;12.90;5.80;;;;;;;;;;10257359;28;20118;-73
2022/10/15 06:22:15;;;;;;;14.25;6.55;;;;;;;;;;10254372;28;20047;-77
2022/10/15 06:27:16;;;;;;;10.73;6.57;;;;;;;;;;10260279;28;20029;-77
2022/10/15 06:32:16;;;;;;;9.98;5.07;;;;;;;;;;10238741;28;20034;-80
2022/10/15 06:37:17;;;;;;;18.15;7.20;;;;;;;;;;10251741;28;20023;-79
2022/10/15 06:42:17;;;;;;;17.00;7.18;;;;;;;;;;10255081;28;20018;-78
2022/10/15 06:47:17;;;;;;;13.23;6.25;;;;;;;;;;10255449;28;20035;-75
2022/10/15 06:52:18;;;;;;;15.38;6.38;;;;;;;;;;10255382;28;20028;-78
2022/10/15 06:57:19;;;;;;;16.63;7.53;;;;;;;;;;10255558;28;20350;-78
2022/10/15 07:02:19;;;;;;;12.20;5.93;;;;;;;;;;10275409;28;20377;-80
2022/10/15 07:07:22;;;;;;;12.95;5.60;;;;;;;;;;10249986;28;20536;-81
2022/10/15 07:12:22;;;;;;;10.55;5.85;;;;;;;;;;10239337;28;20043;-80
2022/10/15 07:17:22;;;;;;;17.52;5.75;;;;;;;;;;10235081;28;20043;-74
2022/10/15 07:22:23;;;;;;;8.85;4.60;;;;;;;;;;10249560;28;20051;-80
2022/10/15 07:27:23;;;;;;;12.80;4.97;;;;;;;;;;10249634;28;20171;-79
2022/10/15 07:32:23;;;;;;;7.68;5.07;;;;;;;;;;10247591;28;20031;-79
2022/10/15 07:37:24;;;;;;;9.40;4.97;;;;;;;;;;10252222;28;20126;-75
2022/10/15 07:42:24;;;;;;;7.57;4.68;;;;;;;;;;10248431;28;20339;-76
2022/10/15 07:47:24;;;;;;;9.03;5.73;;;;;;;;;;10240320;28;20027;-76
2022/10/15 07:52:26;;;;;;;9.65;4.55;;;;;;;;;;10338913;23;20309;-80
2022/10/15 07:57:26;;;;;;;8.77;5.00;;;;;;;;;;10308020;28;20073;-75
2022/10/15 08:02:27;;;;;;;13.70;5.78;;;;;;;;;;10304103;28;20034;-81
2022/10/15 08:07:27;;;;;;;8.63;4.27;;;;;;;;;;10312596;28;20531;-78
2022/10/15 08:12:27;;;;;;;8.23;4.70;;;;;;;;;;10300383;28;20044;-76
2022/10/15 08:17:27;;;;;;;10.35;4.90;;;;;;;;;;10313598;28;20484;-79
2022/10/15 08:22:28;;;;;;;7.25;4.20;;;;;;;;;;10321374;28;20356;-79
2022/10/15 08:27:28;;;;;;;6.15;4.05;;;;;;;;;;10322995;28;20129;-78
2022/10/15 08:32:28;;;;;;;7.90;4.17;;;;;;;;;;10316806;28;20084;-81
2022/10/15 08:37:28;;;;;;;6.93;4.78;;;;;;;;;;10312814;28;20587;-80
2022/10/15 08:42:35;;;;;;;6.97;3.83;;;;;;;;;;10308277;28;20022;-76
2022/10/15 08:47:45;;;;;;;10.75;4.20;;;;;;;;;;10294651;28;20030;-78
2022/10/15 08:52:47;;;;;;;7.25;4.30;;;;;;;;;;10304985;28;20086;-80
2022/10/15 08:57:50;;;;;;;8.52;4.25;;;;;;;;;;10301616;28;20118;-81
2022/10/15 09:02:56;;;;;;;7.10;4.47;;;;;;;;;;10305939;28;20102;-81
2022/10/15 09:07:58;;;;;;;6.18;3.28;;;;;;;;;;10305159;28;20089;-78
2022/10/15 09:13:11;;;;;;;13.80;4.38;;;;;;;;;;10302788;28;20436;-81
2022/10/15 09:18:15;;;;;;;9.38;3.88;;;;;;;;;;10307173;28;20026;-77
2022/10/15 09:23:18;;;;;;;5.75;3.28;;;;;;;;;;10302642;28;20362;-79
2022/10/15 09:28:23;;;;;;;6.93;3.58;;;;;;;;;;10304749;28;20034;-78
2022/10/15 09:33:44;;;;;;;7.30;4.00;;;;;;;;;;10307269;28;20062;-80
2022/10/15 09:39:03;;;;;;;4.97;3.00;;;;;;;;;;10323115;28;20168;-78
2022/10/15 09:44:09;;;;;;;7.03;3.45;;;;;;;;;;10308135;28;20399;-79
2022/10/15 09:49:19;;;;;;;7.97;3.05;;;;;;;;;;10308609;28;20037;-80
2022/10/15 09:54:39;;;;;;;5.78;2.85;;;;;;;;;;10304957;28;20023;-80
2022/10/15 09:59:51;;;;;;;5.40;2.78;;;;;;;;;;10307337;28;20026;-81
2022/10/15 10:04:52;;;;;;;7.07;3.25;;;;;;;;;;10302094;28;20022;-81
2022/10/15 10:09:56;;;;;;;4.95;2.90;;;;;;;;;;10300225;28;20022;-81
2022/10/15 10:14:58;;;;;;;5.10;2.83;;;;;;;;;;10298223;28;20027;-79
2022/10/15 10:20:04;;;;;;;8.20;3.10;;;;;;;;;;10304751;28;20501;-79
2022/10/15 10:25:21;;;;;;;5.03;2.90;;;;;;;;;;10300262;28;20030;-78
2022/10/15 10:30:22;;;;;;;10.52;3.40;;;;;;;;;;10323184;28;20038;-79
2022/10/15 10:35:23;;;;;;;5.35;3.38;;;;;;;;;;10302549;28;20030;-78
2022/10/15 10:40:33;;;;;;;6.10;3.17;;;;;;;;;;10295821;28;20022;-76
2022/10/15 10:45:33;;;;;;;9.15;3.80;;;;;;;;;;10303767;28;20014;-80
2022/10/15 10:50:36;;;;;;;5.95;3.10;;;;;;;;;;10304254;28;20073;-77
2022/10/15 10:55:37;;;;;;;7.00;2.30;;;;;;;;;;10306866;28;20144;-81
2022/10/15 11:00:39;;;;;;;3.47;1.98;;;;;;;;;;10296578;28;20018;-77
2022/10/15 11:05:40;;;;;;;2.30;1.67;;;;;;;;;;10298870;28;20018;-80
2022/10/15 11:10:45;;;;;;;4.18;1.60;;;;;;;;;;10322725;28;20026;-82
2022/10/15 11:15:46;;;;;;;4.63;2.33;;;;;;;;;;10302893;28;20030;-77
2022/10/15 11:20:59;;;;;;;6.33;2.27;;;;;;;;;;10297461;28;20512;-80
2022/10/15 11:26:19;;;;;;;6.97;3.00;;;;;;;;;;10298087;28;20391;-80
2022/10/15 11:31:40;;;;;;;10.10;3.10;;;;;;;;;;10295428;28;20019;-80
2022/10/15 11:36:59;;;;;;;6.07;2.72;;;;;;;;;;10296355;28;20030;-78
2022/10/15 11:42:09;;;;;;;4.90;3.13;;;;;;;;;;10304462;28;20729;-78
2022/10/15 11:47:12;;;;;;;5.85;2.92;;;;;;;;;;10297939;28;20031;-78
2022/10/15 11:52:15;;;;;;;6.90;2.58;;;;;;;;;;10304443;28;20087;-80
2022/10/15 11:57:17;;;;;;;4.78;2.75;;;;;;;;;;10310233;28;20026;-79
2022/10/15 12:02:23;;;;;;;4.38;3.17;;;;;;;;;;10307157;28;20039;-77
2022/10/15 12:07:34;;;;;;;7.40;3.40;;;;;;;;;;10307222;28;20080;-80
2022/10/15 12:12:46;;;;;;;9.38;4.13;;;;;;;;;;10323112;28;20111;-79
2022/10/15 12:18:01;;;;;;;4.70;2.95;;;;;;;;;;10306671;28;20098;-77
2022/10/15 12:23:07;;;;;;;6.32;2.72;;;;;;;;;;10312568;28;20552;-78
2022/10/15 12:28:12;;;;;;;3.72;2.83;;;;;;;;;;10308744;28;20601;-80
2022/10/15 12:33:32;;;;;;;3.88;2.65;;;;;;;;;;10301535;28;20030;-81
2022/10/15 12:38:33;;;;;;;6.38;5.25;;;;;;;;;;10310840;28;20085;-79
2022/10/15 12:43:42;;;;;;;6.97;3.40;;;;;;;;;;10293420;28;20044;-79
2022/10/15 12:48:43;;;;;;;6.05;3.33;;;;;;;;;;10306381;28;20034;-75
2022/10/15 12:53:47;;;;;;;3.35;2.40;;;;;;;;;;10303588;28;20148;-77
2022/10/15 12:58:54;;;;;;;4.97;2.75;;;;;;;;;;10302765;28;20412;-79
2022/10/15 13:03:57;;;;;;;7.05;3.05;;;;;;;;;;10307016;28;20019;-78
2022/10/15 13:08:57;;;;;;;5.00;2.63;;;;;;;;;;10325834;28;20030;-80
2022/10/15 13:14:02;;;;;;;3.72;2.55;;;;;;;;;;10303645;28;20408;-81
2022/10/15 13:19:05;;;;;;;5.60;2.67;;;;;;;;;;10309080;28;20042;-81
2022/10/15 13:24:09;;;;;;;7.57;3.05;;;;;;;;;;10304777;23;20126;-80
2022/10/15 13:29:17;;;;;;;4.53;2.90;;;;;;;;;;10268805;28;20029;-78
2022/10/15 13:34:47;;;;;;;11.90;2.78;;;;;;;;;;10267034;28;20023;-78
2022/10/15 13:39:50;;;;;;;8.50;2.70;;;;;;;;;;10269199;28;20358;-76
2022/10/15 13:45:02;;;;;;;5.70;2.80;;;;;;;;;;10266173;28;20081;-74
2022/10/15 13:50:21;;;;;;;4.68;2.38;;;;;;;;;;10254903;28;20130;-79
2022/10/15 13:55:29;;;;;;;4.85;2.20;;;;;;;;;;10278905;28;20089;-77
2022/10/15 14:00:34;;;;;;;2.72;1.80;;;;;;;;;;10253971;28;20043;-77
2022/10/15 14:05:37;;;;;;;4.10;2.50;;;;;;;;;;10258556;28;20037;-80
2022/10/15 14:10:38;;;;;;;4.68;2.40;;;;;;;;;;10251126;28;20035;-76
2022/10/15 14:15:42;;;;;;;2.63;2.10;;;;;;;;;;10248320;28;20031;-73
2022/10/15 14:20:44;;;;;;;2.97;2.13;;;;;;;;;;10254721;28;20031;-80
2022/10/15 14:25:44;;;;;;;8.98;2.58;;;;;;;;;;10251794;28;20043;-78
2022/10/15 14:30:46;;;;;;;3.83;2.33;;;;;;;;;;10256788;28;20034;-77
2022/10/15 14:41:08;;;;;;;6.07;2.67;;;;;;;;;;10297229;28;20540;-79
2022/10/15 14:46:26;;;;;;;10.82;4.35;;;;;;;;;;10303686;28;20034;-74
2022/10/15 14:51:29;;;;;;;3.05;1.95;;;;;;;;;;10299977;28;20135;-79
2022/10/15 14:56:32;;;;;;;6.60;2.17;;;;;;;;;;10295746;28;20037;-85
2022/10/15 15:01:34;;;;;;;5.70;2.60;;;;;;;;;;10303892;28;20481;-71
2022/10/15 15:06:35;;;;;;;9.75;2.92;;;;;;;;;;10299668;28;20084;-81
2022/10/15 15:11:36;;;;;;;6.80;3.00;;;;;;;;;;10277003;28;20583;-79
2022/10/15 15:16:36;;;;;;;8.83;2.93;;;;;;;;;;10282646;28;20088;-77
2022/10/15 15:21:36;;;;;;;6.05;2.72;;;;;;;;;;10295309;28;20937;-76
2022/10/15 15:26:36;;;;;;;7.13;3.08;;;;;;;;;;10281344;28;20054;-76
2022/10/15 15:31:37;;;;;;;6.82;3.25;;;;;;;;;;10289709;28;20076;-75
2022/10/15 15:36:37;;;;;;;9.90;3.30;;;;;;;;;;10287734;28;20054;-74
2022/10/15 15:41:37;;;;;;;7.47;3.97;;;;;;;;;;10285895;28;20413;-75
2022/10/15 15:46:49;;;;;;;8.35;3.92;;;;;;;;;;10289485;28;20764;-78
2022/10/15 15:51:51;;;;;;;7.70;4.18;;;;;;;;;;10311502;28;20034;-80
2022/10/15 15:56:52;;;;;;;11.63;4.28;;;;;;;;;;10289738;28;20029;-79
2022/10/15 16:01:53;;;;;;;8.30;4.10;;;;;;;;;;10293507;28;20034;-78
2022/10/15 16:06:54;;;;;;;13.07;4.10;;;;;;;;;;10277205;28;20034;-80
2022/10/15 16:11:56;;;;;;;6.33;3.27;;;;;;;;;;10286994;28;20033;-75
2022/10/15 16:16:56;;;;;;;4.65;2.25;;;;;;;;;;10289883;28;20292;-81
2022/10/15 16:21:56;;;;;;;11.55;4.22;;;;;;;;;;10291187;28;20025;-77
2022/10/15 16:26:56;;;;;;;5.82;3.20;;;;;;;;;;10290860;28;20022;-75
2022/10/15 16:31:57;;;;;;;7.00;3.30;;;;;;;;;;10312484;28;20072;-80
2022/10/15 16:36:57;;;;;;;6.68;3.72;;;;;;;;;;10314635;28;20086;-77
2022/10/15 16:41:58;;;;;;;12.70;3.30;;;;;;;;;;10295869;28;20022;-77
2022/10/15 16:47:05;;;;;;;5.35;2.88;;;;;;;;;;10300241;28;20088;-81
2022/10/15 16:52:07;;;;;;;4.50;3.17;;;;;;;;;;10296341;28;20037;-75
2022/10/15 16:57:07;;;;;;;7.85;3.97;;;;;;;;;;10297710;28;20104;-80
2022/10/15 17:02:08;;;;;;;5.15;3.38;;;;;;;;;;10293662;28;20030;-77
2022/10/15 17:07:10;;;;;;;10.05;3.70;;;;;;;;;;10295120;28;20466;-74
2022/10/15 17:12:11;;;;;;;15.27;4.03;;;;;;;;;;10295216;28;20033;-80
2022/10/15 17:17:12;;;;;;;10.25;4.22;;;;;;;;;;10297076;28;20065;-77
2022/10/15 17:22:16;;;;;;;9.77;4.63;;;;;;;;;;10302681;28;20026;-79
2022/10/15 17:27:17;;;;;;;10.48;4.53;;;;;;;;;;10285316;28;20041;-79
2022/10/15 17:32:17;;;;;;;10.38;4.25;;;;;;;;;;10314212;28;20019;-81
2022/10/15 17:37:17;;;;;;;6.10;4.03;;;;;;;;;;10298596;28;20512;-80
2022/10/15 17:42:41;;;;;;;13.90;6.03;;;;;;;;;;10286638;28;20042;-79
2022/10/15 17:47:41;;;;;;;13.73;5.55;;;;;;;;;;10284112;28;20025;-77
2022/10/15 17:52:43;;;;;;;12.38;6.45;;;;;;;;;;10314051;28;20014;-78
2022/10/15 17:57:43;;;;;;;19.15;8.23;;;;;;;;;;10274347;28;20034;-78
2022/10/15 18:02:47;;;;;;;19.92;6.78;;;;;;;;;;10290927;28;20030;-80
2022/10/15 18:07:47;;;;;;;17.98;7.10;;;;;;;;;;10293816;28;20038;-77
2022/10/15 18:12:47;;;;;;;11.68;6.47;;;;;;;;;;10286968;28;20505;-78
2022/10/15 18:17:48;;;;;;;18.20;7.40;;;;;;;;;;10321310;28;20778;-75
2022/10/15 18:22:48;;;;;;;16.50;8.93;;;;;;;;;;10290729;28;20022;-75
2022/10/15 18:27:50;;;;;;;20.30;9.45;;;;;;;;;;10315068;28;20022;-79
2022/10/15 18:32:51;;;;;;;18.70;8.60;;;;;;;;;;10291305;28;20022;-80
2022/10/15 18:37:52;;;;;;;17.73;10.07;;;;;;;;;;10284867;28;20520;-77
2022/10/15 18:42:52;;;;;;;21.48;10.07;;;;;;;;;;10289783;28;20042;-78
2022/10/15 18:47:53;;;;;;;22.17;10.05;;;;;;;;;;10291957;28;20611;-78
2022/10/15 18:52:53;;;;;;;13.55;7.72;;;;;;;;;;10310853;28;20406;-71
2022/10/15 18:57:53;;;;;;;14.02;6.43;;;;;;;;;;10291747;28;20030;-81
2022/10/15 19:02:55;;;;;;;12.98;6.30;;;;;;;;;;10291689;28;20056;-76
2022/10/15 19:07:55;;;;;;;12.85;5.30;;;;;;;;;;10306710;28;20031;-75
2022/10/15 19:12:56;;;;;;;11.25;5.45;;;;;;;;;;10315265;28;20022;-73
2022/10/15 19:17:56;;;;;;;6.85;4.20;;;;;;;;;;10294350;28;20109;-78
2022/10/15 19:22:56;;;;;;;9.77;5.88;;;;;;;;;;10293590;28;20088;-76
2022/10/15 19:27:56;;;;;;;11.63;4.90;;;;;;;;;;10288290;28;20496;-82
2022/10/15 19:32:57;;;;;;;16.73;6.60;;;;;;;;;;10292006;28;20018;-76
2022/10/15 19:37:57;;;;;;;8.57;4.60;;;;;;;;;;10292239;28;20047;-74
2022/10/15 19:42:58;;;;;;;12.70;5.25;;;;;;;;;;10289702;28;20417;-78
2022/10/15 19:47:59;;;;;;;9.38;4.15;;;;;;;;;;10318662;28;20545;-82
2022/10/15 19:52:59;;;;;;;7.70;4.80;;;;;;;;;;10290966;28;20023;-78
2022/10/15 19:57:59;;;;;;;9.70;5.28;;;;;;;;;;10287897;28;20039;-73
2022/10/15 20:03:00;;;;;;;8.90;4.70;;;;;;;;;;10292229;28;20026;-73
2022/10/15 20:08:01;;;;;;;7.18;4.40;;;;;;;;;;10290811;28;20027;-78
2022/10/15 20:13:06;;;;;;;9.43;4.40;;;;;;;;;;10292509;28;20519;-77
2022/10/15 20:18:07;;;;;;;6.93;4.95;;;;;;;;;;10299605;28;20127;-79
2022/10/15 20:23:07;;;;;;;11.48;5.22;;;;;;;;;;10296925;28;20577;-74
2022/10/15 20:28:10;;;;;;;9.18;4.75;;;;;;;;;;10317482;28;20701;-75
2022/10/15 20:33:11;;;;;;;8.70;4.72;;;;;;;;;;10293195;28;20457;-79
2022/10/15 20:38:13;;;;;;;9.68;5.25;;;;;;;;;;10297725;28;20062;-82
2022/10/15 20:43:13;;;;;;;8.80;4.97;;;;;;;;;;10293443;28;20057;-75
2022/10/15 20:48:17;;;;;;;7.88;4.50;;;;;;;;;;10323203;28;20026;-78
2022/10/15 20:53:18;;;;;;;10.82;5.35;;;;;;;;;;10295530;28;20511;-77
2022/10/15 20:58:18;;;;;;;10.55;5.38;;;;;;;;;;10289841;28;20026;-74
2022/10/15 21:03:18;;;;;;;12.15;4.88;;;;;;;;;;10297807;28;20481;-81
2022/10/15 21:08:19;;;;;;;9.47;5.77;;;;;;;;;;10297548;28;20499;-77
2022/10/15 21:13:19;;;;;;;9.73;6.22;;;;;;;;;;10295239;28;20037;-76
2022/10/15 21:18:20;;;;;;;11.20;5.88;;;;;;;;;;10295269;28;20045;-76
2022/10/15 21:23:20;;;;;;;7.20;5.38;;;;;;;;;;10292843;28;20356;-73
2022/10/15 21:28:21;;;;;;;7.22;4.80;;;;;;;;;;10295740;28;20657;-77
2022/10/15 21:33:21;;;;;;;6.40;4.57;;;;;;;;;;10301828;28;20113;-76
2022/10/15 21:38:22;;;;;;;6.32;4.60;;;;;;;;;;10291629;28;20515;-75
2022/10/15 21:43:23;;;;;;;8.05;3.97;;;;;;;;;;10288515;28;20035;-78
2022/10/15 21:48:25;;;;;;;10.15;3.92;;;;;;;;;;10298055;28;20453;-76
2022/10/15 21:53:26;;;;;;;4.72;3.22;;;;;;;;;;10293047;28;20500;-73
2022/10/15 21:58:26;;;;;;;5.95;3.80;;;;;;;;;;10294685;28;20035;-79
2022/10/15 22:03:26;;;;;;;7.47;4.37;;;;;;;;;;10293715;28;20035;-73
2022/10/15 22:08:27;;;;;;;20.77;18.77;;;;;;;;;;10276980;28;20285;-74
2022/10/15 22:13:27;;;;;;;12.95;7.60;;;;;;;;;;10307593;28;20053;-73
2022/10/15 22:18:28;;;;;;;12.10;6.70;;;;;;;;;;10319419;28;20104;-74
2022/10/15 22:23:28;;;;;;;7.55;4.75;;;;;;;;;;10286433;28;20377;-74
2022/10/15 22:28:28;;;;;;;9.90;5.95;;;;;;;;;;10293622;28;20560;-78
2022/10/15 22:33:28;;;;;;;12.63;7.13;;;;;;;;;;10293465;28;20540;-74
2022/10/15 22:38:29;;;;;;;12.80;7.78;;;;;;;;;;10290713;28;20062;-77
2022/10/15 22:43:29;;;;;;;17.40;9.30;;;;;;;;;;10291062;28;20323;-72
2022/10/15 22:48:33;;;;;;;21.85;10.43;;;;;;;;;;10323382;23;20517;-73
2022/10/15 22:53:33;;;;;;;18.20;10.68;;;;;;;;;;10310088;28;20046;-73
2022/10/15 22:58:37;;;;;;;24.83;11.93;;;;;;;;;;10316896;28;20901;-73
2022/10/15 23:03:37;;;;;;;20.55;11.65;;;;;;;;;;10326667;28;20488;-74
2022/10/15 23:08:37;;;;;;;21.75;12.13;;;;;;;;;;10309100;28;20087;-76
2022/10/15 23:13:38;;;;;;;22.17;11.10;;;;;;;;;;10308737;28;20115;-74
2022/10/15 23:18:39;;;;;;;34.83;14.15;;;;;;;;;;10307389;28;20069;-74
2022/10/15 23:23:41;;;;;;;24.15;12.10;;;;;;;;;;10302908;28;20041;-79
2022/10/15 23:28:42;;;;;;;24.58;13.07;;;;;;;;;;10303303;28;20034;-73
2022/10/15 23:33:42;;;;;;;27.95;12.23;;;;;;;;;;10300110;28;20018;-78
2022/10/15 23:38:50;;;;;;;25.05;12.40;;;;;;;;;;10299643;28;20057;-79
2022/10/15 23:43:50;;;;;;;21.98;12.40;;;;;;;;;;10312034;28;20474;-75
2022/10/15 23:48:51;;;;;;;17.90;10.98;;;;;;;;;;10322211;28;20117;-79
2022/10/15 23:53:52;;;;;;;18.08;10.68;;;;;;;;;;10325557;28;20129;-77
2022/10/15 23:58:56;;;;;;;22.15;12.90;;;;;;;;;;10326732;28;20384;-81
